Time;durP1;ratioP1;P1;durP2;ratioP2;P2;SDS_P1;SDS_P2;PMS_P1;PMS_P2;Temp;Humidity;BMP_temperature;BMP_pressure;BME280_temperature;BME280_humidity;BME280_pressure;Samples;Min_cycle;Max_cycle;Signal;HPM_P1;HPM_P2
2023/11/21 06:03:03;;;;;;;;;;;;;;;;;;4912973;29;19933;-48
2023/11/21 06:05:32;;;;;;;;;;;;;;;;;;4914718;29;19915;-47
2023/11/21 06:08:00;;;;;;;;;;;;;;;;;;4914382;29;20010;-50
2023/11/21 06:10:26;;;;;;;;;;;;;;;;;;4913758;29;19997;-47
2023/11/21 06:12:52;;;;;;;;;;;;;;;;;;4914739;29;20035;-49
2023/11/21 06:15:20;;;;;;;;;;;;;;;;;;4927662;29;20428;-46
2023/11/21 06:17:49;;;;;;;;;;;;;;;;;;4933396;29;20370;-47
2023/11/21 06:20:15;;;;;;;;;;;;;;;;;;4933692;29;19914;-47
2023/11/21 06:22:41;;;;;;;;;;;;;;;;;;4920388;29;19922;-46
2023/11/21 06:25:07;;;;;;;;;;;;;;;;;;4914423;29;20286;-46
2023/11/21 06:27:34;;;;;;;;;;;;;;;;;;4914328;29;19911;-49
2023/11/21 06:29:59;;;;;;;;;;;;;;;;;;4928875;29;19911;-47
2023/11/21 06:32:26;;;;;;;;;;;;;;;;;;4914320;29;19918;-46
2023/11/21 06:34:54;;;;;;;;;;;;;;;;;;4914009;29;20302;-49
2023/11/21 06:37:22;;;;;;;;;;;;;;;;;;4933006;29;19962;-45
2023/11/21 06:39:48;;;;;;;;;;;;;;;;;;4933413;29;20369;-47
2023/11/21 06:42:15;;;;;;;;;;;;;;;;;;4931411;29;19918;-48
2023/11/21 06:44:41;;;;;;;;;;;;;;;;;;4933466;29;19970;-47
2023/11/21 06:47:07;;;;;;;;;;;;;;;;;;4933343;29;19934;-47
2023/11/21 06:49:33;;;;;;;;;;;;;;;;;;4918875;29;20305;-49
2023/11/21 06:51:59;;;;;;;;;;;;;;;;;;4915351;29;20379;-49
2023/11/21 06:54:25;;;;;;;;;;;;;;;;;;4917290;29;19915;-47
2023/11/21 06:56:50;;;;;;;;;;;;;;;;;;4918112;29;19923;-50
2023/11/21 06:59:16;;;;;;;;;;;;;;;;;;4916846;29;20266;-49
2023/11/21 07:01:43;;;;;;;;;;;;;;;;;;4944276;28;19997;-48
2023/11/21 07:04:09;;;;;;;;;;;;;;;;;;4955645;29;20014;-49
2023/11/21 07:06:34;;;;;;;;;;;;;;;;;;4953402;28;20017;-48
2023/11/21 07:09:01;;;;;;;;;;;;;;;;;;4954954;28;19922;-49
2023/11/21 07:11:27;;;;;;;;;;;;;;;;;;4954773;28;19921;-46
2023/11/21 07:13:52;;;;;;;;;;;;;;;;;;4955458;29;20361;-47
2023/11/21 07:16:18;;;;;;;;;;;;;;;;;;4947525;29;19911;-47
2023/11/21 07:18:44;;;;;;;;;;;;;;;;;;4938209;29;19929;-46
2023/11/21 07:21:11;;;;;;;;;;;;;;;;;;4952474;28;19953;-46
2023/11/21 07:23:37;;;;;;;;;;;;;;;;;;4952778;28;19930;-47
2023/11/21 07:26:08;;;;;;;;;;;;;;;;;;4953792;29;19911;-48
2023/11/21 07:28:34;;;;;;;;;;;;;;;;;;4953723;29;19918;-47
2023/11/21 07:31:00;;;;;;;;;;;;;;;;;;4953468;29;19911;-47
2023/11/21 07:33:26;;;;;;;;;;;;;;;;;;4962701;28;19962;-48
2023/11/21 07:35:52;;;;;;;;;;;;;;;;;;4973468;28;19910;-46
2023/11/21 07:38:18;;;;;;;;;;;;;;;;;;4972903;28;19917;-48
2023/11/21 07:40:43;;;;;;;;;;;;;;;;;;4953054;28;20396;-47
2023/11/21 07:43:10;;;;;;;;;;;;;;;;;;4953116;29;19962;-49
2023/11/21 07:45:36;;;;;;;;;;;;;;;;;;4953481;29;19937;-46
2023/11/21 07:48:03;;;;;;;;;;;;;;;;;;4953063;29;19978;-45
2023/11/21 07:50:29;;;;;;;;;;;;;;;;;;4953369;29;20001;-46
2023/11/21 07:52:55;;;;;;;;;;;;;;;;;;4952669;29;20041;-46
2023/11/21 07:55:21;;;;;;;;;;;;;;;;;;4950488;29;19921;-46
2023/11/21 07:57:47;;;;;;;;;;;;;;;;;;4953502;29;19910;-49
2023/11/21 08:00:15;;;;;;;;;;;;;;;;;;4951712;29;19937;-47
2023/11/21 08:02:45;;;;;;;;;;;;;;;;;;4952339;28;19929;-46
2023/11/21 08:05:11;;;;;;;;;;;;;;;;;;4952255;29;20026;-49
2023/11/21 08:07:37;;;;;;;;;;;;;;;;;;4945798;28;19997;-48
2023/11/21 08:10:04;;;;;;;;;;;;;;;;;;4953484;29;20477;-48
2023/11/21 08:12:30;;;;;;;;;;;;;;;;;;4953800;29;19910;-50
2023/11/21 08:14:56;;;;;;;;;;;;;;;;;;4953419;29;20389;-47
2023/11/21 08:17:23;;;;;;;;;;;;;;;;;;4952242;29;19918;-49
2023/11/21 08:19:51;;;;;;;;;;;;;;;;;;4959169;28;19961;-49
2023/11/21 08:22:17;;;;;;;;;;;;;;;;;;4957112;28;20459;-46
2023/11/21 08:24:43;;;;;;;;;;;;;;;;;;4950264;28;19925;-45
2023/11/21 08:27:09;;;;;;;;;;;;;;;;;;4943712;29;19914;-47
2023/11/21 08:29:36;;;;;;;;;;;;;;;;;;4950794;28;19918;-47
2023/11/21 08:32:02;;;;;;;;;;;;;;;;;;4943718;29;19910;-47
2023/11/21 08:34:28;;;;;;;;;;;;;;;;;;4953773;29;19914;-45
2023/11/21 08:36:54;;;;;;;;;;;;;;;;;;4954143;29;19956;-48
2023/11/21 08:39:20;;;;;;;;;;;;;;;;;;4953395;29;19937;-47
2023/11/21 08:41:46;;;;;;;;;;;;;;;;;;4951073;28;19922;-45
2023/11/21 08:44:11;;;;;;;;;;;;;;;;;;4943812;29;19926;-47
2023/11/21 08:46:39;;;;;;;;;;;;;;;;;;4934172;29;19911;-45
2023/11/21 08:49:06;;;;;;;;;;;;;;;;;;4933611;29;19915;-46
2023/11/21 08:51:31;;;;;;;;;;;;;;;;;;4934047;29;19911;-46
2023/11/21 08:54:00;;;;;;;;;;;;;;;;;;4934624;29;19918;-46
2023/11/21 08:56:26;;;;;;;;;;;;;;;;;;4934017;29;19917;-46
2023/11/21 08:58:52;;;;;;;;;;;;;;;;;;4933234;29;19911;-46
2023/11/21 09:01:18;;;;;;;;;;;;;;;;;;4933224;29;19922;-46
2023/11/21 09:03:44;;;;;;;;;;;;;;;;;;4933385;29;19963;-45
2023/11/21 09:06:10;;;;;;;;;;;;;;;;;;4933781;29;19984;-45
2023/11/21 09:08:36;;;;;;;;;;;;;;;;;;4933465;29;19930;-46
2023/11/21 09:11:02;;;;;;;;;;;;;;;;;;4939061;29;19938;-47
2023/11/21 09:13:29;;;;;;;;;;;;;;;;;;4947532;28;19922;-47
2023/11/21 09:15:55;;;;;;;;;;;;;;;;;;4972352;28;19919;-47
2023/11/21 09:18:21;;;;;;;;;;;;;;;;;;4950580;28;19970;-46
2023/11/21 09:20:47;;;;;;;;;;;;;;;;;;4940903;29;19970;-48
2023/11/21 09:23:13;;;;;;;;;;;;;;;;;;4950410;29;19946;-45
2023/11/21 09:25:39;;;;;;;;;;;;;;;;;;4952037;29;19945;-46
2023/11/21 09:28:08;;;;;;;;;;;;;;;;;;4947438;28;20005;-46
2023/11/21 09:30:34;;;;;;;;;;;;;;;;;;4953003;29;19911;-46
2023/11/21 09:33:00;;;;;;;;;;;;;;;;;;4952262;29;19911;-46
2023/11/21 09:35:27;;;;;;;;;;;;;;;;;;4952409;29;19914;-46
2023/11/21 09:37:53;;;;;;;;;;;;;;;;;;4951100;28;20382;-47
2023/11/21 09:40:22;;;;;;;;;;;;;;;;;;4951874;29;19910;-47
2023/11/21 09:42:48;;;;;;;;;;;;;;;;;;4952409;29;20009;-47
2023/11/21 09:45:14;;;;;;;;;;;;;;;;;;4944251;28;19915;-47
2023/11/21 09:47:40;;;;;;;;;;;;;;;;;;4932937;29;19918;-46
2023/11/21 09:50:09;;;;;;;;;;;;;;;;;;4933846;29;19938;-46
2023/11/21 09:52:35;;;;;;;;;;;;;;;;;;4933473;29;19919;-46
2023/11/21 09:55:02;;;;;;;;;;;;;;;;;;4932787;29;20563;-47
2023/11/21 09:57:28;;;;;;;;;;;;;;;;;;4932929;29;20452;-46
2023/11/21 09:59:58;;;;;;;;;;;;;;;;;;4932710;29;19911;-45
2023/11/21 10:02:25;;;;;;;;;;;;;;;;;;4940400;29;19918;-46
2023/11/21 10:04:52;;;;;;;;;;;;;;;;;;4951770;29;20432;-47
2023/11/21 10:07:18;;;;;;;;;;;;;;;;;;4951640;29;20381;-46
2023/11/21 10:09:44;;;;;;;;;;;;;;;;;;4950015;28;19965;-47
2023/11/21 10:12:10;;;;;;;;;;;;;;;;;;4941886;28;19911;-46
2023/11/21 10:14:36;;;;;;;;;;;;;;;;;;4933214;29;19950;-47
2023/11/21 10:17:02;;;;;;;;;;;;;;;;;;4932449;29;19950;-45
2023/11/21 10:19:28;;;;;;;;;;;;;;;;;;4940783;29;19921;-48
2023/11/21 10:21:54;;;;;;;;;;;;;;;;;;4948551;29;19922;-47
2023/11/21 10:24:20;;;;;;;;;;;;;;;;;;4950899;29;19915;-49
2023/11/21 10:26:48;;;;;;;;;;;;;;;;;;4950194;29;20061;-47
2023/11/21 10:29:16;;;;;;;;;;;;;;;;;;4950858;29;20328;-50
2023/11/21 10:31:44;;;;;;;;;;;;;;;;;;4950785;29;19910;-50
2023/11/21 10:34:11;;;;;;;;;;;;;;;;;;4949221;29;19910;-47
2023/11/21 10:36:38;;;;;;;;;;;;;;;;;;4949905;29;20292;-50
2023/11/21 10:39:04;;;;;;;;;;;;;;;;;;4951297;29;19917;-50
2023/11/21 10:41:30;;;;;;;;;;;;;;;;;;4950629;29;19911;-48
2023/11/21 10:43:56;;;;;;;;;;;;;;;;;;4950993;29;19918;-47
2023/11/21 10:46:23;;;;;;;;;;;;;;;;;;4950584;29;19922;-46
2023/11/21 10:48:49;;;;;;;;;;;;;;;;;;4950567;29;20456;-50
2023/11/21 10:51:16;;;;;;;;;;;;;;;;;;4950543;29;19926;-50
2023/11/21 10:53:42;;;;;;;;;;;;;;;;;;4950536;29;19910;-48
2023/11/21 10:56:08;;;;;;;;;;;;;;;;;;4951342;29;19917;-50
2023/11/21 10:58:34;;;;;;;;;;;;;;;;;;4947537;29;19997;-49
2023/11/21 11:01:00;;;;;;;;;;;;;;;;;;4944384;29;19919;-45
2023/11/21 11:03:25;;;;;;;;;;;;;;;;;;4949810;29;19985;-45
2023/11/21 11:05:51;;;;;;;;;;;;;;;;;;4951284;29;19914;-47
2023/11/21 11:08:18;;;;;;;;;;;;;;;;;;4951302;29;19942;-43
2023/11/21 11:10:46;;;;;;;;;;;;;;;;;;4937360;28;20302;-49
2023/11/21 11:13:14;;;;;;;;;;;;;;;;;;4932071;29;20469;-46
2023/11/21 11:15:40;;;;;;;;;;;;;;;;;;4946198;29;20401;-47
2023/11/21 11:18:06;;;;;;;;;;;;;;;;;;4951179;29;19966;-49
2023/11/21 11:20:33;;;;;;;;;;;;;;;;;;4949106;28;19922;-49
2023/11/21 11:22:59;;;;;;;;;;;;;;;;;;4950386;29;19914;-47
2023/11/21 11:25:24;;;;;;;;;;;;;;;;;;4951021;29;19921;-47
2023/11/21 11:27:50;;;;;;;;;;;;;;;;;;4950995;29;19911;-48
2023/11/21 11:30:16;;;;;;;;;;;;;;;;;;4951655;29;20009;-48
2023/11/21 11:32:42;;;;;;;;;;;;;;;;;;4950797;29;19910;-48
2023/11/21 11:35:08;;;;;;;;;;;;;;;;;;4951094;29;20293;-49
2023/11/21 11:37:34;;;;;;;;;;;;;;;;;;4950798;28;19958;-49
2023/11/21 11:40:00;;;;;;;;;;;;;;;;;;4953505;29;20392;-48
2023/11/21 11:42:26;;;;;;;;;;;;;;;;;;4954326;29;19911;-49
2023/11/21 11:44:54;;;;;;;;;;;;;;;;;;4939249;28;19915;-50
2023/11/21 11:47:20;;;;;;;;;;;;;;;;;;4935766;29;19917;-47
2023/11/21 11:49:46;;;;;;;;;;;;;;;;;;4936777;29;20001;-49
2023/11/21 11:52:12;;;;;;;;;;;;;;;;;;4935144;29;19915;-48
2023/11/21 11:54:38;;;;;;;;;;;;;;;;;;4937948;28;19911;-46
2023/11/21 11:57:04;;;;;;;;;;;;;;;;;;4954195;29;19910;-46
2023/11/21 11:59:30;;;;;;;;;;;;;;;;;;4953917;29;19911;-47
2023/11/21 12:01:55;;;;;;;;;;;;;;;;;;4948293;28;20402;-48
2023/11/21 12:04:23;;;;;;;;;;;;;;;;;;4947985;29;20453;-45
2023/11/21 12:06:49;;;;;;;;;;;;;;;;;;4935567;29;20422;-48
2023/11/21 12:09:15;;;;;;;;;;;;;;;;;;4940229;29;20001;-47
2023/11/21 12:11:41;;;;;;;;;;;;;;;;;;4952926;29;19910;-50
2023/11/21 12:14:07;;;;;;;;;;;;;;;;;;4951018;29;19934;-49
2023/11/21 12:16:33;;;;;;;;;;;;;;;;;;4952935;28;20045;-47
2023/11/21 12:18:59;;;;;;;;;;;;;;;;;;4952227;28;20005;-48
2023/11/21 12:21:25;;;;;;;;;;;;;;;;;;4954406;28;19915;-48
2023/11/21 12:23:51;;;;;;;;;;;;;;;;;;4953291;29;19919;-48
2023/11/21 12:26:17;;;;;;;;;;;;;;;;;;4953701;29;19962;-48
2023/11/21 12:28:43;;;;;;;;;;;;;;;;;;4953450;29;19911;-46
2023/11/21 12:31:10;;;;;;;;;;;;;;;;;;4952860;29;19911;-49
2023/11/21 12:33:36;;;;;;;;;;;;;;;;;;4951680;28;21616;-46
2023/11/21 12:36:03;;;;;;;;;;;;;;;;;;4952557;29;19922;-47
2023/11/21 12:38:29;;;;;;;;;;;;;;;;;;4952345;29;19969;-46
2023/11/21 12:40:57;;;;;;;;;;;;;;;;;;4952695;29;19914;-49
2023/11/21 12:43:24;;;;;;;;;;;;;;;;;;4951790;29;20373;-46
2023/11/21 12:45:50;;;;;;;;;;;;;;;;;;4951911;29;19974;-48
2023/11/21 12:48:22;;;;;;;;;;;;;;;;;;4951591;28;19918;-49
2023/11/21 12:50:52;;;;;;;;;;;;;;;;;;4952259;28;19914;-46
2023/11/21 12:53:19;;;;;;;;;;;;;;;;;;4952793;28;19918;-48
2023/11/21 12:55:49;;;;;;;;;;;;;;;;;;4948191;28;19989;-48
2023/11/21 12:58:15;;;;;;;;;;;;;;;;;;4960697;28;19915;-49
2023/11/21 13:00:42;;;;;;;;;;;;;;;;;;4946694;29;19925;-47
2023/11/21 13:03:08;;;;;;;;;;;;;;;;;;4939466;28;19939;-46
2023/11/21 13:05:34;;;;;;;;;;;;;;;;;;4939827;28;19914;-46
2023/11/21 13:08:02;;;;;;;;;;;;;;;;;;4949639;29;19986;-48
2023/11/21 13:10:31;;;;;;;;;;;;;;;;;;4946332;29;19911;-47
2023/11/21 13:12:58;;;;;;;;;;;;;;;;;;4939682;29;19915;-47
2023/11/21 13:15:24;;;;;;;;;;;;;;;;;;4949354;28;20010;-47
2023/11/21 13:17:51;;;;;;;;;;;;;;;;;;4951277;29;19965;-48
2023/11/21 13:20:17;;;;;;;;;;;;;;;;;;4950711;29;19920;-48
2023/11/21 13:22:43;;;;;;;;;;;;;;;;;;4941944;29;19923;-46
2023/11/21 13:25:09;;;;;;;;;;;;;;;;;;4951021;28;19943;-46
2023/11/21 13:27:36;;;;;;;;;;;;;;;;;;4932515;29;19918;-46
2023/11/21 13:30:03;;;;;;;;;;;;;;;;;;4933425;29;20317;-46
2023/11/21 13:32:29;;;;;;;;;;;;;;;;;;4936244;28;19954;-47
2023/11/21 13:34:55;;;;;;;;;;;;;;;;;;4933336;29;19955;-46
2023/11/21 13:37:22;;;;;;;;;;;;;;;;;;4933050;28;20332;-46
2023/11/21 13:39:49;;;;;;;;;;;;;;;;;;4933446;28;20002;-47
2023/11/21 13:42:16;;;;;;;;;;;;;;;;;;4938166;28;19918;-49
2023/11/21 13:44:46;;;;;;;;;;;;;;;;;;4932754;28;19937;-48
2023/11/21 13:47:12;;;;;;;;;;;;;;;;;;4940718;29;19951;-45
2023/11/21 13:49:40;;;;;;;;;;;;;;;;;;4943670;28;20301;-46
2023/11/21 13:52:07;;;;;;;;;;;;;;;;;;4934314;29;19954;-46
2023/11/21 13:54:33;;;;;;;;;;;;;;;;;;4932187;28;20437;-46
2023/11/21 13:57:00;;;;;;;;;;;;;;;;;;4949070;28;20022;-46
2023/11/21 13:59:28;;;;;;;;;;;;;;;;;;4954264;28;19956;-46
2023/11/21 14:04:31;;;;;;;;;;;;;;;;;;4935724;28;19918;-47
2023/11/21 14:06:58;;;;;;;;;;;;;;;;;;4941739;29;19938;-47
2023/11/21 14:09:25;;;;;;;;;;;;;;;;;;4951410;29;20009;-45
2023/11/21 14:11:52;;;;;;;;;;;;;;;;;;4935614;29;19918;-46
2023/11/21 14:14:18;;;;;;;;;;;;;;;;;;4932162;28;20349;-48
2023/11/21 14:16:44;;;;;;;;;;;;;;;;;;4932085;29;19911;-46
2023/11/21 14:19:15;;;;;;;;;;;;;;;;;;4935342;28;19918;-46
2023/11/21 14:21:43;;;;;;;;;;;;;;;;;;4943063;29;20013;-48
2023/11/21 14:24:09;;;;;;;;;;;;;;;;;;4942774;28;19927;-47
2023/11/21 14:26:35;;;;;;;;;;;;;;;;;;4940433;29;19923;-46
2023/11/21 14:29:01;;;;;;;;;;;;;;;;;;4932065;28;19922;-44
2023/11/21 14:31:30;;;;;;;;;;;;;;;;;;4936751;29;20440;-45
2023/11/21 14:33:56;;;;;;;;;;;;;;;;;;4949234;28;19918;-45
2023/11/21 14:36:23;;;;;;;;;;;;;;;;;;4940749;28;19915;-44
2023/11/21 14:38:49;;;;;;;;;;;;;;;;;;4945847;28;19942;-45
2023/11/21 14:41:16;;;;;;;;;;;;;;;;;;4949023;28;19919;-48
2023/11/21 14:43:42;;;;;;;;;;;;;;;;;;4944707;28;19934;-45
2023/11/21 14:46:14;;;;;;;;;;;;;;;;;;4947222;28;19915;-45
2023/11/21 14:48:42;;;;;;;;;;;;;;;;;;4942695;28;19921;-45
2023/11/21 14:53:53;;;;;;;;;;;;;;;;;;4936904;28;19953;-46
2023/11/21 14:56:26;;;;;;;;;;;;;;;;;;4952548;28;20333;-44
2023/11/21 14:58:52;;;;;;;;;;;;;;;;;;4931494;28;20291;-45
2023/11/21 15:01:26;;;;;;;;;;;;;;;;;;4940929;28;19925;-47
2023/11/21 15:03:53;;;;;;;;;;;;;;;;;;4941461;28;19965;-44
2023/11/21 15:06:22;;;;;;;;;;;;;;;;;;4932669;28;19974;-44
2023/11/21 15:08:53;;;;;;;;;;;;;;;;;;4946935;28;19914;-43
2023/11/21 15:11:19;;;;;;;;;;;;;;;;;;4942729;29;20934;-47
2023/11/21 15:13:48;;;;;;;;;;;;;;;;;;4948837;28;19918;-46
2023/11/21 15:16:14;;;;;;;;;;;;;;;;;;4950963;28;19921;-46
2023/11/21 15:18:39;;;;;;;;;;;;;;;;;;4952239;28;19918;-46
2023/11/21 15:21:06;;;;;;;;;;;;;;;;;;4954853;28;19946;-48
2023/11/21 15:23:34;;;;;;;;;;;;;;;;;;4971954;28;19925;-44
2023/11/21 15:26:03;;;;;;;;;;;;;;;;;;4957666;28;19939;-45
2023/11/21 15:28:29;;;;;;;;;;;;;;;;;;4953977;28;19933;-44
2023/11/21 15:30:57;;;;;;;;;;;;;;;;;;4961038;28;19923;-46
2023/11/21 15:33:23;;;;;;;;;;;;;;;;;;4949018;29;19918;-45
2023/11/21 15:35:49;;;;;;;;;;;;;;;;;;4953449;29;19911;-44
2023/11/21 15:38:15;;;;;;;;;;;;;;;;;;4953093;29;19914;-46
2023/11/21 15:40:43;;;;;;;;;;;;;;;;;;4953151;29;19933;-44
2023/11/21 15:43:09;;;;;;;;;;;;;;;;;;4953325;29;20484;-44
2023/11/21 15:45:35;;;;;;;;;;;;;;;;;;4964331;28;19965;-45
2023/11/21 15:48:02;;;;;;;;;;;;;;;;;;4966693;28;19914;-43
2023/11/21 15:50:29;;;;;;;;;;;;;;;;;;4968518;28;20334;-46
2023/11/21 15:52:55;;;;;;;;;;;;;;;;;;4959983;28;19918;-45
2023/11/21 15:55:21;;;;;;;;;;;;;;;;;;4971431;28;19930;-47
2023/11/21 15:57:49;;;;;;;;;;;;;;;;;;4969720;28;19914;-44
2023/11/21 16:00:19;;;;;;;;;;;;;;;;;;4965185;28;19918;-48
2023/11/21 16:02:45;;;;;;;;;;;;;;;;;;4964822;28;20370;-45
2023/11/21 16:05:13;;;;;;;;;;;;;;;;;;4969310;28;19918;-45
2023/11/21 16:07:40;;;;;;;;;;;;;;;;;;4970061;28;19914;-46
2023/11/21 16:10:07;;;;;;;;;;;;;;;;;;4958790;28;19941;-49
2023/11/21 16:12:33;;;;;;;;;;;;;;;;;;4965970;28;19914;-44
2023/11/21 16:14:58;;;;;;;;;;;;;;;;;;4972761;28;20293;-46
2023/11/21 16:17:24;;;;;;;;;;;;;;;;;;4971186;28;19918;-45
2023/11/21 16:19:50;;;;;;;;;;;;;;;;;;4957817;28;20269;-45
2023/11/21 16:22:16;;;;;;;;;;;;;;;;;;4951874;29;19940;-45
2023/11/21 16:24:42;;;;;;;;;;;;;;;;;;4951429;28;19914;-46
2023/11/21 16:27:09;;;;;;;;;;;;;;;;;;4954856;28;19917;-43
2023/11/21 16:29:35;;;;;;;;;;;;;;;;;;4954039;28;20000;-45
2023/11/21 16:32:01;;;;;;;;;;;;;;;;;;4959887;28;19915;-46
2023/11/21 16:34:28;;;;;;;;;;;;;;;;;;4962254;28;19985;-45
2023/11/21 16:36:55;;;;;;;;;;;;;;;;;;4960930;28;20325;-44
2023/11/21 16:39:21;;;;;;;;;;;;;;;;;;4951886;28;19961;-47
2023/11/21 16:41:47;;;;;;;;;;;;;;;;;;4961185;28;19934;-47
2023/11/21 16:44:13;;;;;;;;;;;;;;;;;;4952044;28;19922;-44
2023/11/21 16:46:39;;;;;;;;;;;;;;;;;;4962052;28;20005;-46
2023/11/21 16:49:05;;;;;;;;;;;;;;;;;;4951920;28;19973;-45
2023/11/21 16:51:32;;;;;;;;;;;;;;;;;;4963723;28;19910;-45
2023/11/21 16:53:58;;;;;;;;;;;;;;;;;;4951493;28;19925;-44
2023/11/21 16:56:24;;;;;;;;;;;;;;;;;;4969084;28;19914;-48
2023/11/21 16:58:50;;;;;;;;;;;;;;;;;;4971142;28;19945;-45
2023/11/21 17:01:17;;;;;;;;;;;;;;;;;;4961193;28;19960;-47
2023/11/21 17:03:43;;;;;;;;;;;;;;;;;;4954562;28;19922;-46
2023/11/21 17:06:10;;;;;;;;;;;;;;;;;;4971302;28;19966;-46
2023/11/21 17:08:36;;;;;;;;;;;;;;;;;;4969932;28;20357;-45
2023/11/21 17:11:04;;;;;;;;;;;;;;;;;;4953955;28;19914;-45
2023/11/21 17:13:30;;;;;;;;;;;;;;;;;;4952588;28;20402;-46
2023/11/21 17:15:55;;;;;;;;;;;;;;;;;;4969764;28;20057;-44
2023/11/21 17:18:22;;;;;;;;;;;;;;;;;;4954830;28;19915;-46
2023/11/21 17:20:48;;;;;;;;;;;;;;;;;;4951240;29;20017;-45
2023/11/21 17:23:14;;;;;;;;;;;;;;;;;;4950915;28;19925;-44
2023/11/21 17:25:41;;;;;;;;;;;;;;;;;;4966491;28;19918;-46
2023/11/21 17:28:07;;;;;;;;;;;;;;;;;;4956749;28;20332;-46
2023/11/21 17:30:32;;;;;;;;;;;;;;;;;;4960706;28;19914;-44
2023/11/21 17:32:58;;;;;;;;;;;;;;;;;;4954396;28;19977;-45
2023/11/21 17:35:24;;;;;;;;;;;;;;;;;;4967812;28;20010;-44
2023/11/21 17:37:50;;;;;;;;;;;;;;;;;;4970848;28;20414;-44
2023/11/21 17:40:16;;;;;;;;;;;;;;;;;;4966275;28;19918;-47
2023/11/21 17:42:42;;;;;;;;;;;;;;;;;;4951380;29;19914;-45
2023/11/21 17:45:08;;;;;;;;;;;;;;;;;;4955243;28;20013;-46
2023/11/21 17:47:34;;;;;;;;;;;;;;;;;;4948807;28;19923;-46
2023/11/21 17:50:00;;;;;;;;;;;;;;;;;;4949732;29;20341;-45
2023/11/21 17:52:26;;;;;;;;;;;;;;;;;;4954349;28;19914;-45
2023/11/21 17:54:52;;;;;;;;;;;;;;;;;;4969710;28;19910;-46
2023/11/21 17:57:18;;;;;;;;;;;;;;;;;;4966323;28;19973;-44
2023/11/21 17:59:47;;;;;;;;;;;;;;;;;;4968751;28;20004;-43
2023/11/21 18:02:12;;;;;;;;;;;;;;;;;;4952646;28;20495;-47
2023/11/21 18:04:40;;;;;;;;;;;;;;;;;;4949643;29;20270;-44
2023/11/21 18:07:06;;;;;;;;;;;;;;;;;;4948233;28;20394;-45
2023/11/21 18:09:33;;;;;;;;;;;;;;;;;;4960642;28;19949;-47
2023/11/21 18:11:59;;;;;;;;;;;;;;;;;;4970027;28;19910;-46
2023/11/21 18:14:25;;;;;;;;;;;;;;;;;;4970490;28;19921;-48
2023/11/21 18:16:51;;;;;;;;;;;;;;;;;;4969755;28;19957;-44
2023/11/21 18:19:19;;;;;;;;;;;;;;;;;;4967051;28;19918;-45
2023/11/21 18:21:45;;;;;;;;;;;;;;;;;;4932116;29;19937;-45
2023/11/21 18:24:11;;;;;;;;;;;;;;;;;;4931147;29;19915;-47
2023/11/21 18:26:37;;;;;;;;;;;;;;;;;;4948706;28;19966;-46
2023/11/21 18:29:03;;;;;;;;;;;;;;;;;;4949650;28;20325;-45
2023/11/21 18:31:29;;;;;;;;;;;;;;;;;;4949289;28;19938;-44
2023/11/21 18:33:55;;;;;;;;;;;;;;;;;;4951483;29;20041;-45
2023/11/21 18:36:21;;;;;;;;;;;;;;;;;;4952990;28;19957;-45
2023/11/21 18:38:47;;;;;;;;;;;;;;;;;;4950158;28;19998;-46
2023/11/21 18:41:12;;;;;;;;;;;;;;;;;;4949965;28;20377;-46
2023/11/21 18:43:38;;;;;;;;;;;;;;;;;;4949897;28;19942;-45
2023/11/21 18:46:05;;;;;;;;;;;;;;;;;;4947973;28;19925;-45
2023/11/21 18:48:31;;;;;;;;;;;;;;;;;;4951085;28;19911;-44
2023/11/21 18:50:57;;;;;;;;;;;;;;;;;;4953827;29;19913;-45
2023/11/21 18:53:24;;;;;;;;;;;;;;;;;;4953466;28;20013;-45
2023/11/21 18:55:50;;;;;;;;;;;;;;;;;;4951018;28;19914;-45
2023/11/21 18:58:16;;;;;;;;;;;;;;;;;;4951201;28;20034;-47
2023/11/21 19:00:42;;;;;;;;;;;;;;;;;;4952897;29;19921;-45
2023/11/21 19:03:11;;;;;;;;;;;;;;;;;;4950494;29;19914;-45
2023/11/21 19:05:37;;;;;;;;;;;;;;;;;;4955193;28;19965;-46
2023/11/21 19:08:03;;;;;;;;;;;;;;;;;;4965577;28;19917;-45
2023/11/21 19:10:29;;;;;;;;;;;;;;;;;;4947295;28;19918;-44
2023/11/21 19:12:55;;;;;;;;;;;;;;;;;;4945687;28;19919;-46
2023/11/21 19:15:21;;;;;;;;;;;;;;;;;;4949789;29;20342;-45
2023/11/21 19:17:47;;;;;;;;;;;;;;;;;;4948486;28;19915;-48
2023/11/21 19:20:13;;;;;;;;;;;;;;;;;;4950364;29;19923;-44
2023/11/21 19:22:39;;;;;;;;;;;;;;;;;;4949824;28;19946;-43
2023/11/21 19:25:05;;;;;;;;;;;;;;;;;;4948353;28;19958;-48
2023/11/21 19:27:35;;;;;;;;;;;;;;;;;;4949555;28;19922;-46
2023/11/21 19:30:01;;;;;;;;;;;;;;;;;;4949773;28;19914;-48
2023/11/21 19:32:27;;;;;;;;;;;;;;;;;;4954641;28;19980;-45
2023/11/21 19:34:53;;;;;;;;;;;;;;;;;;4948883;28;19922;-45
2023/11/21 19:37:19;;;;;;;;;;;;;;;;;;4950043;28;19928;-46
2023/11/21 19:39:45;;;;;;;;;;;;;;;;;;4952996;29;19914;-46
2023/11/21 19:42:11;;;;;;;;;;;;;;;;;;4950633;28;20405;-46
2023/11/21 19:44:38;;;;;;;;;;;;;;;;;;4951766;28;19988;-46
2023/11/21 19:47:04;;;;;;;;;;;;;;;;;;4951730;28;19914;-45
2023/11/21 19:49:30;;;;;;;;;;;;;;;;;;4956012;28;19969;-47
2023/11/21 19:51:56;;;;;;;;;;;;;;;;;;4948477;28;20750;-48
2023/11/21 19:54:22;;;;;;;;;;;;;;;;;;4959673;28;19961;-45
2023/11/21 19:56:48;;;;;;;;;;;;;;;;;;4951045;28;19954;-48
2023/11/21 19:59:15;;;;;;;;;;;;;;;;;;4948962;28;19953;-47
2023/11/21 20:01:42;;;;;;;;;;;;;;;;;;4950801;28;19919;-45
2023/11/21 20:04:11;;;;;;;;;;;;;;;;;;4948666;28;20333;-46
2023/11/21 20:06:38;;;;;;;;;;;;;;;;;;4949091;28;20294;-46
2023/11/21 20:09:04;;;;;;;;;;;;;;;;;;4951906;28;20142;-45
2023/11/21 20:11:31;;;;;;;;;;;;;;;;;;4950347;28;20058;-48
2023/11/21 20:13:59;;;;;;;;;;;;;;;;;;4951411;28;19914;-49
2023/11/21 20:16:25;;;;;;;;;;;;;;;;;;4950654;28;19918;-47
2023/11/21 20:18:51;;;;;;;;;;;;;;;;;;4949747;28;19921;-44
2023/11/21 20:21:17;;;;;;;;;;;;;;;;;;4951196;28;20666;-45
2023/11/21 20:23:43;;;;;;;;;;;;;;;;;;4949854;28;19918;-46
2023/11/21 20:26:09;;;;;;;;;;;;;;;;;;4950520;28;19918;-45
2023/11/21 20:28:35;;;;;;;;;;;;;;;;;;4950256;28;19914;-46
2023/11/21 20:31:01;;;;;;;;;;;;;;;;;;4951826;28;19919;-47
2023/11/21 20:33:27;;;;;;;;;;;;;;;;;;4960574;28;19925;-48
2023/11/21 20:35:53;;;;;;;;;;;;;;;;;;4947921;28;19918;-45
2023/11/21 20:38:20;;;;;;;;;;;;;;;;;;4949881;28;19923;-48
2023/11/21 20:40:46;;;;;;;;;;;;;;;;;;4951793;29;20366;-48
2023/11/21 20:43:12;;;;;;;;;;;;;;;;;;4948307;28;19918;-46
2023/11/21 20:45:39;;;;;;;;;;;;;;;;;;4951026;28;19919;-47
2023/11/21 20:48:07;;;;;;;;;;;;;;;;;;4950161;28;20002;-46
2023/11/21 20:50:34;;;;;;;;;;;;;;;;;;4950373;28;19942;-48
2023/11/21 20:53:00;;;;;;;;;;;;;;;;;;4949300;28;19918;-49
2023/11/21 20:55:27;;;;;;;;;;;;;;;;;;4949226;28;19942;-46
2023/11/21 20:57:54;;;;;;;;;;;;;;;;;;4948909;28;19915;-46
2023/11/21 21:00:20;;;;;;;;;;;;;;;;;;4948532;28;19997;-46
2023/11/21 21:02:49;;;;;;;;;;;;;;;;;;4948275;28;20028;-46
2023/11/21 21:05:16;;;;;;;;;;;;;;;;;;4950853;29;19925;-47
2023/11/21 21:07:44;;;;;;;;;;;;;;;;;;4948136;28;19969;-47
2023/11/21 21:10:10;;;;;;;;;;;;;;;;;;4952230;28;19993;-45
2023/11/21 21:12:38;;;;;;;;;;;;;;;;;;4951840;29;20005;-47
2023/11/21 21:15:04;;;;;;;;;;;;;;;;;;4948652;28;19917;-44
2023/11/21 21:17:29;;;;;;;;;;;;;;;;;;4950112;29;20393;-45
2023/11/21 21:19:55;;;;;;;;;;;;;;;;;;4949652;29;19950;-47
2023/11/21 21:22:21;;;;;;;;;;;;;;;;;;4950074;29;20423;-44
2023/11/21 21:24:47;;;;;;;;;;;;;;;;;;4950225;29;19915;-50
2023/11/21 21:27:13;;;;;;;;;;;;;;;;;;4949953;29;19922;-45
2023/11/21 21:29:39;;;;;;;;;;;;;;;;;;4948880;28;19958;-45
2023/11/21 21:32:05;;;;;;;;;;;;;;;;;;4965501;28;19922;-47
2023/11/21 21:34:31;;;;;;;;;;;;;;;;;;4949785;29;19918;-47
2023/11/21 21:36:57;;;;;;;;;;;;;;;;;;4947775;29;19914;-49
2023/11/21 21:39:23;;;;;;;;;;;;;;;;;;4948696;29;19921;-45
2023/11/21 21:41:50;;;;;;;;;;;;;;;;;;4949957;29;19918;-47
2023/11/21 21:44:16;;;;;;;;;;;;;;;;;;4949596;29;19925;-46
2023/11/21 21:46:42;;;;;;;;;;;;;;;;;;4948664;29;19911;-45
2023/11/21 21:49:09;;;;;;;;;;;;;;;;;;4953805;28;20342;-46
2023/11/21 21:51:36;;;;;;;;;;;;;;;;;;4947830;29;19926;-45
2023/11/21 21:54:02;;;;;;;;;;;;;;;;;;4950264;29;19993;-48
2023/11/21 21:56:28;;;;;;;;;;;;;;;;;;4949522;29;20009;-45
2023/11/21 21:58:55;;;;;;;;;;;;;;;;;;4949291;29;20591;-45
2023/11/21 22:01:24;;;;;;;;;;;;;;;;;;4948874;29;19962;-47
2023/11/21 22:03:50;;;;;;;;;;;;;;;;;;4947723;29;19918;-47
2023/11/21 22:06:16;;;;;;;;;;;;;;;;;;4948750;29;19921;-45
2023/11/21 22:08:42;;;;;;;;;;;;;;;;;;4947410;29;19915;-47
2023/11/21 22:11:08;;;;;;;;;;;;;;;;;;4947988;29;19921;-48
2023/11/21 22:13:34;;;;;;;;;;;;;;;;;;4947990;29;19994;-47
2023/11/21 22:16:01;;;;;;;;;;;;;;;;;;4947955;29;20698;-47
2023/11/21 22:18:27;;;;;;;;;;;;;;;;;;4948739;29;19962;-44
2023/11/21 22:20:53;;;;;;;;;;;;;;;;;;4947610;29;20322;-47
2023/11/21 22:23:19;;;;;;;;;;;;;;;;;;4948500;28;20043;-46
2023/11/21 22:25:45;;;;;;;;;;;;;;;;;;4949460;29;19919;-47
2023/11/21 22:28:11;;;;;;;;;;;;;;;;;;4947650;29;20028;-48
2023/11/21 22:30:37;;;;;;;;;;;;;;;;;;4947865;29;20385;-49
2023/11/21 22:33:03;;;;;;;;;;;;;;;;;;4947837;29;19980;-44
2023/11/21 22:35:29;;;;;;;;;;;;;;;;;;4946336;29;20021;-45
2023/11/21 22:37:55;;;;;;;;;;;;;;;;;;4943934;29;19925;-46
2023/11/21 22:40:21;;;;;;;;;;;;;;;;;;4930401;29;20005;-49
2023/11/21 22:42:48;;;;;;;;;;;;;;;;;;4929851;29;19917;-49
2023/11/21 22:45:14;;;;;;;;;;;;;;;;;;4930539;29;19914;-46
2023/11/21 22:47:40;;;;;;;;;;;;;;;;;;4931039;29;19915;-48